Time;durP1;ratioP1;P1;durP2;ratioP2;P2;SDS_P1;SDS_P2;PMS_P1;PMS_P2;Temp;Humidity;BMP_temperature;BMP_pressure;BME280_temperature;BME280_humidity;BME280_pressure;Samples;Min_cycle;Max_cycle;Signal;HPM_P1;HPM_P2
2023/06/21 00:01:03;;;;;;;21.63;15.93;;;;;;;;;;6266649;28;20740;-83
2023/06/21 00:04:03;;;;;;;19.98;15.52;;;;;;;;;;6266167;28;20154;-81
2023/06/21 00:07:04;;;;;;;21.13;15.07;;;;;;;;;;6271238;28;20459;-81
2023/06/21 00:10:07;;;;;;;17.57;13.73;;;;;;;;;;6268265;28;20028;-82
2023/06/21 00:13:08;;;;;;;21.10;14.23;;;;;;;;;;6254563;28;20069;-83
2023/06/21 00:16:08;;;;;;;17.95;14.20;;;;;;;;;;6241432;28;20029;-80
2023/06/21 00:19:08;;;;;;;18.50;15.03;;;;;;;;;;6247235;28;20048;-83
2023/06/21 00:22:09;;;;;;;20.75;16.13;;;;;;;;;;6236752;28;20402;-82
2023/06/21 00:25:09;;;;;;;22.07;15.53;;;;;;;;;;6246140;28;20032;-81
2023/06/21 00:28:09;;;;;;;22.08;15.88;;;;;;;;;;6246341;28;20025;-81
2023/06/21 00:31:10;;;;;;;20.92;14.90;;;;;;;;;;6242691;28;20025;-83
2023/06/21 00:34:10;;;;;;;21.03;15.53;;;;;;;;;;6237203;28;20479;-86
2023/06/21 00:37:11;;;;;;;21.10;15.03;;;;;;;;;;6240142;28;20535;-84
2023/06/21 00:40:12;;;;;;;18.63;15.38;;;;;;;;;;6243199;28;20029;-83
2023/06/21 00:43:12;;;;;;;19.50;15.57;;;;;;;;;;6247367;28;20048;-82
2023/06/21 00:46:12;;;;;;;18.23;15.18;;;;;;;;;;6220012;28;20022;-82
2023/06/21 00:49:12;;;;;;;20.30;14.60;;;;;;;;;;6241615;28;20048;-84
2023/06/21 00:52:13;;;;;;;19.52;14.27;;;;;;;;;;6247459;28;20013;-85
2023/06/21 00:55:13;;;;;;;19.60;15.95;;;;;;;;;;6243195;28;20392;-84
2023/06/21 00:58:14;;;;;;;18.23;13.87;;;;;;;;;;6242046;28;20025;-84
2023/06/21 01:01:14;;;;;;;24.70;15.43;;;;;;;;;;6240785;28;20034;-84
2023/06/21 01:04:15;;;;;;;21.20;15.10;;;;;;;;;;6237166;28;20435;-83
2023/06/21 01:07:29;;;;;;;20.27;14.27;;;;;;;;;;6247003;28;20053;-84
2023/06/21 01:10:44;;;;;;;19.58;15.07;;;;;;;;;;6241568;28;20745;-85
2023/06/21 01:13:50;;;;;;;18.92;14.48;;;;;;;;;;6260880;28;20028;-82
2023/06/21 01:16:51;;;;;;;24.17;16.55;;;;;;;;;;6271050;28;20028;-83
2023/06/21 01:19:54;;;;;;;23.35;15.40;;;;;;;;;;6267902;28;20375;-84
2023/06/21 01:22:55;;;;;;;23.35;16.17;;;;;;;;;;6269576;28;20025;-85
2023/06/21 01:26:11;;;;;;;19.90;16.27;;;;;;;;;;6269755;28;20033;-85
2023/06/21 01:29:13;;;;;;;21.55;14.65;;;;;;;;;;6269631;28;20024;-85
2023/06/21 01:32:13;;;;;;;21.52;13.63;;;;;;;;;;6263666;28;20475;-84
2023/06/21 01:35:14;;;;;;;22.10;14.60;;;;;;;;;;6267790;28;20063;-81
2023/06/21 01:38:14;;;;;;;19.10;15.13;;;;;;;;;;6262348;28;20104;-84
2023/06/21 01:41:15;;;;;;;23.30;17.40;;;;;;;;;;6268685;28;20020;-82
2023/06/21 01:44:16;;;;;;;22.43;15.33;;;;;;;;;;6268926;28;20470;-75
2023/06/21 01:47:17;;;;;;;23.73;15.75;;;;;;;;;;6262967;28;20029;-75
2023/06/21 01:50:18;;;;;;;22.67;15.82;;;;;;;;;;6268637;28;20612;-75
2023/06/21 01:53:19;;;;;;;24.90;17.30;;;;;;;;;;6267639;28;20009;-75
2023/06/21 01:56:19;;;;;;;21.70;16.57;;;;;;;;;;6268632;28;20395;-75
2023/06/21 01:59:20;;;;;;;21.37;16.03;;;;;;;;;;6268255;28;20013;-74
2023/06/21 02:02:21;;;;;;;25.27;16.63;;;;;;;;;;6268449;28;20470;-74
2023/06/21 02:05:21;;;;;;;22.48;17.17;;;;;;;;;;6268210;28;20028;-74
2023/06/21 02:08:22;;;;;;;27.10;16.73;;;;;;;;;;6271791;28;20212;-74
2023/06/21 02:11:22;;;;;;;27.27;17.67;;;;;;;;;;6267660;28;20017;-75
2023/06/21 02:14:22;;;;;;;22.03;15.73;;;;;;;;;;6261242;28;20099;-75
2023/06/21 02:17:23;;;;;;;26.50;18.37;;;;;;;;;;6260938;28;20465;-75
2023/06/21 02:20:23;;;;;;;26.17;18.65;;;;;;;;;;6261940;28;20530;-74
2023/06/21 02:23:23;;;;;;;20.33;17.10;;;;;;;;;;6268153;28;20025;-74
2023/06/21 02:26:23;;;;;;;20.20;15.50;;;;;;;;;;6268136;28;20029;-75
2023/06/21 02:29:24;;;;;;;23.50;17.13;;;;;;;;;;6261974;28;20446;-75
2023/06/21 02:32:24;;;;;;;24.80;18.13;;;;;;;;;;6267212;28;20009;-75
2023/06/21 02:35:24;;;;;;;28.60;17.50;;;;;;;;;;6267496;28;20013;-75
2023/06/21 02:38:25;;;;;;;21.83;16.80;;;;;;;;;;6262643;28;20028;-75
2023/06/21 02:41:25;;;;;;;22.60;16.27;;;;;;;;;;6263670;28;20025;-75
2023/06/21 02:44:25;;;;;;;20.17;15.13;;;;;;;;;;6258496;28;20490;-75
2023/06/21 02:47:25;;;;;;;24.58;17.63;;;;;;;;;;6255233;28;20029;-75
2023/06/21 02:50:25;;;;;;;25.00;18.00;;;;;;;;;;6256383;28;20480;-75
2023/06/21 02:53:26;;;;;;;25.43;18.43;;;;;;;;;;6267596;28;20094;-75
2023/06/21 02:56:26;;;;;;;23.10;17.73;;;;;;;;;;6265620;28;20059;-75
2023/06/21 02:59:28;;;;;;;22.50;15.57;;;;;;;;;;6265118;28;20032;-75
2023/06/21 03:02:33;;;;;;;25.33;17.30;;;;;;;;;;6267133;28;20096;-81
2023/06/21 03:05:39;;;;;;;23.83;17.20;;;;;;;;;;6262549;28;20028;-81
2023/06/21 03:08:40;;;;;;;23.60;17.77;;;;;;;;;;6266543;28;20031;-81
2023/06/21 03:11:41;;;;;;;23.25;17.80;;;;;;;;;;6265375;28;20017;-82
2023/06/21 03:14:42;;;;;;;22.27;16.27;;;;;;;;;;6266268;28;20094;-83
2023/06/21 03:17:42;;;;;;;24.63;18.43;;;;;;;;;;6268896;28;20021;-81
2023/06/21 03:20:42;;;;;;;23.03;17.70;;;;;;;;;;6277889;28;20298;-81
2023/06/21 03:23:43;;;;;;;21.27;16.53;;;;;;;;;;6266989;28;20021;-83
2023/06/21 03:26:44;;;;;;;23.50;18.27;;;;;;;;;;6266396;28;20039;-82
2023/06/21 03:29:44;;;;;;;21.77;16.83;;;;;;;;;;6263251;28;20275;-79
2023/06/21 03:32:47;;;;;;;22.43;17.73;;;;;;;;;;6270583;28;20060;-82
2023/06/21 03:35:47;;;;;;;23.98;17.30;;;;;;;;;;6264298;28;20055;-80
2023/06/21 03:38:48;;;;;;;28.40;17.73;;;;;;;;;;6268360;28;20476;-81
2023/06/21 03:41:48;;;;;;;23.55;17.65;;;;;;;;;;6266866;28;20029;-82
2023/06/21 03:44:48;;;;;;;25.30;18.52;;;;;;;;;;6251209;28;20035;-82
2023/06/21 03:47:48;;;;;;;29.27;18.00;;;;;;;;;;6246529;28;20017;-82
2023/06/21 03:50:49;;;;;;;25.00;18.42;;;;;;;;;;6265732;28;20024;-81
2023/06/21 03:53:49;;;;;;;23.17;17.43;;;;;;;;;;6265437;28;20586;-80
2023/06/21 03:56:49;;;;;;;26.70;19.02;;;;;;;;;;6243624;28;20029;-81
2023/06/21 03:59:49;;;;;;;28.43;18.33;;;;;;;;;;6270775;28;20033;-82
2023/06/21 04:02:49;;;;;;;27.70;18.13;;;;;;;;;;6272668;28;20017;-83
2023/06/21 04:05:49;;;;;;;31.20;17.70;;;;;;;;;;6271969;28;20549;-81
2023/06/21 04:08:50;;;;;;;23.63;17.93;;;;;;;;;;6269688;28;20028;-80
2023/06/21 04:11:50;;;;;;;25.33;18.42;;;;;;;;;;6270803;28;20075;-81
2023/06/21 04:14:50;;;;;;;25.97;17.43;;;;;;;;;;6273794;28;20044;-81
2023/06/21 04:17:50;;;;;;;24.70;17.75;;;;;;;;;;6277093;28;20078;-82
2023/06/21 04:20:50;;;;;;;23.33;16.73;;;;;;;;;;6272199;28;20033;-81
2023/06/21 04:23:51;;;;;;;25.03;16.60;;;;;;;;;;6237349;28;20029;-82
2023/06/21 04:26:51;;;;;;;23.27;17.30;;;;;;;;;;6266658;28;20104;-81
2023/06/21 04:29:51;;;;;;;27.90;16.40;;;;;;;;;;6271043;28;20070;-82
2023/06/21 04:32:51;;;;;;;23.73;16.95;;;;;;;;;;6271296;28;20017;-80
2023/06/21 04:35:52;;;;;;;24.87;18.33;;;;;;;;;;6252967;28;20024;-82
2023/06/21 04:38:52;;;;;;;21.20;17.30;;;;;;;;;;6266498;28;20113;-82
2023/06/21 04:41:52;;;;;;;25.00;17.35;;;;;;;;;;6268622;28;20035;-82
2023/06/21 04:44:54;;;;;;;21.30;16.10;;;;;;;;;;6269545;28;20111;-81
2023/06/21 04:47:57;;;;;;;21.83;16.13;;;;;;;;;;6269369;28;20021;-80
2023/06/21 04:50:57;;;;;;;28.10;17.30;;;;;;;;;;6265917;28;20391;-82
2023/06/21 04:54:01;;;;;;;21.53;15.10;;;;;;;;;;6265369;28;20093;-82
2023/06/21 04:57:03;;;;;;;23.63;15.38;;;;;;;;;;6266771;28;20098;-82
2023/06/21 05:00:07;;;;;;;23.55;18.25;;;;;;;;;;6259353;28;20064;-83
2023/06/21 05:03:07;;;;;;;29.92;17.50;;;;;;;;;;6267847;28;20016;-81
2023/06/21 05:06:07;;;;;;;22.92;16.77;;;;;;;;;;6270452;28;20060;-82
2023/06/21 05:09:08;;;;;;;22.20;15.30;;;;;;;;;;6269807;28;20069;-81
2023/06/21 05:12:08;;;;;;;;;;;;;;;;;;6276117;28;20020;-83
2023/06/21 05:15:09;;;;;;;22.95;17.45;;;;;;;;;;6251968;28;19928;-83
2023/06/21 05:18:09;;;;;;;26.40;16.73;;;;;;;;;;6264021;28;20029;-81
2023/06/21 05:21:09;;;;;;;26.40;17.13;;;;;;;;;;6263944;28;20043;-81
2023/06/21 05:24:10;;;;;;;22.90;17.00;;;;;;;;;;6267838;28;20050;-83
2023/06/21 05:27:10;;;;;;;24.53;16.97;;;;;;;;;;6268320;28;20398;-83
2023/06/21 05:30:10;;;;;;;21.30;15.87;;;;;;;;;;6268736;28;20040;-81
2023/06/21 05:33:11;;;;;;;19.97;16.37;;;;;;;;;;6268734;28;20263;-82
2023/06/21 05:36:11;;;;;;;22.88;15.43;;;;;;;;;;6250793;28;20050;-82
2023/06/21 05:39:12;;;;;;;24.30;16.40;;;;;;;;;;6246055;28;20082;-82
2023/06/21 05:42:12;;;;;;;22.43;16.10;;;;;;;;;;6260342;28;20021;-81
2023/06/21 05:45:12;;;;;;;21.30;16.93;;;;;;;;;;6272905;28;20037;-81
2023/06/21 05:48:12;;;;;;;25.40;15.33;;;;;;;;;;6272433;28;20467;-83
2023/06/21 05:51:12;;;;;;;24.60;15.77;;;;;;;;;;6268385;28;20017;-81
2023/06/21 05:54:13;;;;;;;21.57;17.13;;;;;;;;;;6260836;28;20033;-81
2023/06/21 05:57:13;;;;;;;22.83;14.90;;;;;;;;;;6265065;28;20017;-81
2023/06/21 06:00:14;;;;;;;23.60;14.70;;;;;;;;;;6250075;28;20028;-81
2023/06/21 06:03:14;;;;;;;22.30;16.70;;;;;;;;;;6265865;28;20021;-81
2023/06/21 06:06:15;;;;;;;23.33;16.60;;;;;;;;;;6266040;28;20045;-81
2023/06/21 06:09:15;;;;;;;20.25;17.02;;;;;;;;;;6267160;28;20514;-79
2023/06/21 06:12:15;;;;;;;24.17;16.33;;;;;;;;;;6264726;28;20023;-79
2023/06/21 06:15:15;;;;;;;21.53;16.40;;;;;;;;;;6267648;28;20048;-80
2023/06/21 06:18:17;;;;;;;20.93;15.73;;;;;;;;;;6245753;28;20042;-81
2023/06/21 06:21:21;;;;;;;25.05;14.98;;;;;;;;;;6267026;28;20434;-77
2023/06/21 06:24:21;;;;;;;22.83;15.43;;;;;;;;;;6267725;28;20120;-82
2023/06/21 06:27:21;;;;;;;;;;;;;;;;;;6268802;28;20048;-80
2023/06/21 06:30:22;;;;;;;26.13;14.90;;;;;;;;;;6261707;28;19912;-81
2023/06/21 06:33:22;;;;;;;18.13;12.67;;;;;;;;;;6260268;28;20074;-83
2023/06/21 06:36:22;;;;;;;20.83;14.57;;;;;;;;;;6261628;28;20051;-82
2023/06/21 06:39:22;;;;;;;;;;;;;;;;;;6244866;28;20064;-83
2023/06/21 06:42:23;;;;;;;19.15;13.75;;;;;;;;;;6264883;28;19909;-82
2023/06/21 06:45:23;;;;;;;;;;;;;;;;;;6261104;28;20163;-81
2023/06/21 06:48:23;;;;;;;18.83;14.25;;;;;;;;;;6267273;28;19921;-84
2023/06/21 06:51:23;;;;;;;;;;;;;;;;;;6262977;28;20021;-84
2023/06/21 06:54:23;;;;;;;18.75;13.25;;;;;;;;;;6267648;28;19963;-82
2023/06/21 06:57:23;;;;;;;;;;;;;;;;;;6267358;28;20430;-85
2023/06/21 07:00:24;;;;;;;20.35;14.10;;;;;;;;;;6267713;28;19992;-84
2023/06/21 07:03:25;;;;;;;19.38;12.40;;;;;;;;;;6265719;28;20052;-83
2023/06/21 07:06:25;;;;;;;18.27;13.30;;;;;;;;;;6256574;28;20414;-83
2023/06/21 07:09:25;;;;;;;18.25;13.05;;;;;;;;;;6268260;28;20048;-82
2023/06/21 07:12:26;;;;;;;18.30;13.23;;;;;;;;;;6265850;28;20071;-83
2023/06/21 07:15:26;;;;;;;14.70;11.53;;;;;;;;;;6268732;28;20029;-84
2023/06/21 07:18:26;;;;;;;19.33;13.23;;;;;;;;;;6268529;28;20063;-85
2023/06/21 07:21:27;;;;;;;18.23;12.30;;;;;;;;;;6263169;28;20017;-85
2023/06/21 07:24:27;;;;;;;14.90;10.60;;;;;;;;;;6267329;28;20455;-86
2023/06/21 07:27:27;;;;;;;15.30;11.97;;;;;;;;;;6261975;28;20036;-84
2023/06/21 07:30:27;;;;;;;12.63;11.03;;;;;;;;;;6261405;28;20295;-86
2023/06/21 07:33:28;;;;;;;11.97;9.73;;;;;;;;;;6265743;28;20560;-83
2023/06/21 07:36:28;;;;;;;13.77;8.77;;;;;;;;;;6267090;28;20016;-85
2023/06/21 07:39:28;;;;;;;12.07;9.23;;;;;;;;;;6267781;28;20071;-86
2023/06/21 07:42:28;;;;;;;17.10;9.00;;;;;;;;;;6265736;28;20026;-86
2023/06/21 07:45:28;;;;;;;11.95;7.72;;;;;;;;;;6261934;28;20095;-84
2023/06/21 07:48:29;;;;;;;10.75;8.65;;;;;;;;;;6267182;28;20017;-86
2023/06/21 07:51:29;;;;;;;12.48;9.57;;;;;;;;;;6267391;28;20442;-86
2023/06/21 07:54:29;;;;;;;12.90;8.60;;;;;;;;;;6266402;28;20013;-85
2023/06/21 07:57:29;;;;;;;11.40;7.80;;;;;;;;;;6264977;28;20428;-84
2023/06/21 08:00:29;;;;;;;13.82;9.52;;;;;;;;;;6265482;28;20341;-86
2023/06/21 08:03:30;;;;;;;10.85;8.50;;;;;;;;;;6268609;28;20048;-86
2023/06/21 08:06:30;;;;;;;10.77;8.68;;;;;;;;;;6270547;28;20025;-87
2023/06/21 08:09:30;;;;;;;9.75;8.23;;;;;;;;;;6267945;28;20006;-86
2023/06/21 08:12:31;;;;;;;11.35;8.02;;;;;;;;;;6261295;28;20009;-85
2023/06/21 08:15:31;;;;;;;11.33;8.60;;;;;;;;;;6263170;28;20496;-83
2023/06/21 08:18:31;;;;;;;10.07;8.30;;;;;;;;;;6258723;28;20464;-82
2023/06/21 08:21:31;;;;;;;15.97;8.73;;;;;;;;;;6257823;28;20024;-83
2023/06/21 08:24:32;;;;;;;14.05;9.60;;;;;;;;;;6244136;28;20036;-84
2023/06/21 08:27:32;;;;;;;12.80;8.38;;;;;;;;;;6265489;28;20020;-84
2023/06/21 08:30:33;;;;;;;12.70;8.03;;;;;;;;;;6263733;28;20514;-83
2023/06/21 08:33:33;;;;;;;11.50;7.20;;;;;;;;;;6268838;28;20021;-84
2023/06/21 08:36:33;;;;;;;10.03;7.80;;;;;;;;;;6267229;28;20497;-83
2023/06/21 08:39:33;;;;;;;10.47;8.70;;;;;;;;;;6261535;28;20075;-84
2023/06/21 08:42:33;;;;;;;11.67;8.70;;;;;;;;;;6261884;28;20360;-77
2023/06/21 08:45:34;;;;;;;11.90;7.97;;;;;;;;;;6268458;28;20017;-76
2023/06/21 08:48:35;;;;;;;10.90;8.35;;;;;;;;;;6270154;28;20025;-75
2023/06/21 08:51:36;;;;;;;10.38;9.07;;;;;;;;;;6270290;28;20100;-76
2023/06/21 08:54:39;;;;;;;12.90;9.13;;;;;;;;;;6246287;28;20021;-76
2023/06/21 08:57:44;;;;;;;15.07;9.52;;;;;;;;;;6269313;28;20519;-76
2023/06/21 09:00:47;;;;;;;14.40;9.10;;;;;;;;;;6266340;28;20017;-76
2023/06/21 09:03:53;;;;;;;15.02;10.05;;;;;;;;;;6265852;28;20029;-76
2023/06/21 09:06:54;;;;;;;10.45;8.20;;;;;;;;;;6268808;28;20028;-74
2023/06/21 09:09:56;;;;;;;12.02;9.27;;;;;;;;;;6274224;28;20024;-74
2023/06/21 09:12:59;;;;;;;12.65;9.50;;;;;;;;;;6268887;28;20281;-74
2023/06/21 09:16:01;;;;;;;13.73;10.20;;;;;;;;;;6271340;28;20056;-74
2023/06/21 09:19:01;;;;;;;13.77;9.82;;;;;;;;;;6277325;28;20028;-74
2023/06/21 09:22:01;;;;;;;15.55;10.30;;;;;;;;;;6276088;28;20498;-75
2023/06/21 09:25:02;;;;;;;12.47;10.07;;;;;;;;;;6264650;28;20021;-75
2023/06/21 09:28:02;;;;;;;12.85;9.30;;;;;;;;;;6265887;28;20029;-75
2023/06/21 09:31:03;;;;;;;11.82;9.73;;;;;;;;;;6269715;28;20017;-74
2023/06/21 09:34:03;;;;;;;12.97;9.70;;;;;;;;;;6251770;28;20447;-75
2023/06/21 09:37:03;;;;;;;15.03;9.83;;;;;;;;;;6263563;28;20452;-74
2023/06/21 09:40:03;;;;;;;13.65;9.75;;;;;;;;;;6251230;28;20025;-75
2023/06/21 09:43:04;;;;;;;15.93;10.05;;;;;;;;;;6269403;28;20024;-84
2023/06/21 09:46:05;;;;;;;13.95;11.07;;;;;;;;;;6268020;28;20055;-82
2023/06/21 09:49:08;;;;;;;13.60;9.57;;;;;;;;;;6265584;28;20032;-83
2023/06/21 09:52:08;;;;;;;13.55;10.00;;;;;;;;;;6266964;28;20047;-86
2023/06/21 09:55:13;;;;;;;13.97;10.47;;;;;;;;;;6268597;28;20021;-85
2023/06/21 09:58:14;;;;;;;12.52;9.98;;;;;;;;;;6268614;28;20103;-83
2023/06/21 10:01:15;;;;;;;14.38;10.90;;;;;;;;;;6265879;28;20020;-83
2023/06/21 10:04:15;;;;;;;15.95;9.82;;;;;;;;;;6266271;28;20049;-83
2023/06/21 10:07:19;;;;;;;15.55;10.63;;;;;;;;;;6255909;28;20020;-83
2023/06/21 10:10:19;;;;;;;14.52;9.48;;;;;;;;;;6266977;28;20014;-77
2023/06/21 10:13:25;;;;;;;13.65;10.43;;;;;;;;;;6260089;28;20168;-84
2023/06/21 10:16:25;;;;;;;14.95;10.40;;;;;;;;;;6265358;28;20027;-83
2023/06/21 10:19:27;;;;;;;15.88;9.90;;;;;;;;;;6260947;28;20036;-81
2023/06/21 10:22:28;;;;;;;14.95;10.90;;;;;;;;;;6265660;28;20233;-82
2023/06/21 10:25:28;;;;;;;13.77;10.73;;;;;;;;;;6260297;28;20036;-82
2023/06/21 10:28:31;;;;;;;11.90;8.53;;;;;;;;;;6263799;28;20019;-81
2023/06/21 10:31:32;;;;;;;14.02;10.30;;;;;;;;;;6265373;28;20430;-83
2023/06/21 10:34:40;;;;;;;16.67;11.00;;;;;;;;;;6267544;28;20020;-84
2023/06/21 10:37:49;;;;;;;17.77;10.07;;;;;;;;;;6267444;28;20023;-81
2023/06/21 10:40:50;;;;;;;15.52;10.52;;;;;;;;;;6266382;28;20025;-84
2023/06/21 10:43:50;;;;;;;12.88;10.70;;;;;;;;;;6264855;28;20527;-83
2023/06/21 10:46:50;;;;;;;;;;;;;;;;;;6268448;28;20025;-84
2023/06/21 10:49:51;;;;;;;13.00;10.00;;;;;;;;;;6265748;28;19913;-79
2023/06/21 10:52:55;;;;;;;8.93;7.15;;;;;;;;;;6249654;28;20052;-82
2023/06/21 10:55:56;;;;;;;14.60;9.73;;;;;;;;;;6267588;28;20025;-82
2023/06/21 10:58:56;;;;;;;17.10;10.93;;;;;;;;;;6263266;28;20356;-79
2023/06/21 11:01:56;;;;;;;14.77;12.18;;;;;;;;;;6268109;28;20049;-78
2023/06/21 11:05:13;;;;;;;19.10;13.23;;;;;;;;;;6257432;28;20485;-82
2023/06/21 11:08:14;;;;;;;19.35;14.52;;;;;;;;;;6263387;28;20024;-82
2023/06/21 11:11:30;;;;;;;20.48;14.80;;;;;;;;;;6266862;28;20527;-82
2023/06/21 11:14:31;;;;;;;22.50;16.02;;;;;;;;;;6239410;28;20063;-85
2023/06/21 11:17:34;;;;;;;22.30;16.73;;;;;;;;;;6266832;28;20037;-83
2023/06/21 11:20:47;;;;;;;20.70;16.95;;;;;;;;;;6261379;28;20103;-81
2023/06/21 11:23:49;;;;;;;30.85;19.63;;;;;;;;;;6253438;28;20053;-82
2023/06/21 11:27:06;;;;;;;26.15;19.77;;;;;;;;;;6262598;28;20486;-86
2023/06/21 11:30:09;;;;;;;29.60;22.05;;;;;;;;;;6267146;28;20442;-84
2023/06/21 11:33:19;;;;;;;24.98;20.60;;;;;;;;;;6265962;28;20060;-83
2023/06/21 11:36:26;;;;;;;30.23;21.52;;;;;;;;;;6265793;28;20387;-79
2023/06/21 11:39:26;;;;;;;24.33;20.33;;;;;;;;;;6263558;28;20044;-82
2023/06/21 11:42:27;;;;;;;22.57;19.77;;;;;;;;;;6265370;28;20434;-81
2023/06/21 11:45:35;;;;;;;19.92;16.38;;;;;;;;;;6248704;28;20029;-83
2023/06/21 11:48:38;;;;;;;20.63;17.60;;;;;;;;;;6267959;28;20047;-82
2023/06/21 11:51:48;;;;;;;22.88;18.80;;;;;;;;;;6267444;28;20017;-83
2023/06/21 11:54:49;;;;;;;22.90;18.95;;;;;;;;;;6270552;28;20017;-84
2023/06/21 11:57:49;;;;;;;19.40;17.30;;;;;;;;;;6269348;28;20028;-84
2023/06/21 12:00:50;;;;;;;22.97;16.23;;;;;;;;;;6265462;28;20082;-88
2023/06/21 12:03:57;;;;;;;25.55;16.27;;;;;;;;;;6259780;28;20040;-77
2023/06/21 12:06:57;;;;;;;24.02;16.75;;;;;;;;;;6260531;28;20105;-77
2023/06/21 12:09:59;;;;;;;16.87;15.07;;;;;;;;;;6266175;28;20036;-77
2023/06/21 12:13:03;;;;;;;21.02;16.17;;;;;;;;;;6266148;28;20099;-77
2023/06/21 12:16:07;;;;;;;19.05;14.23;;;;;;;;;;6264646;28;20395;-77
2023/06/21 12:19:08;;;;;;;18.67;13.88;;;;;;;;;;6269075;28;20016;-76
2023/06/21 12:22:08;;;;;;;;;;;;;;;;;;6271100;28;20029;-74
2023/06/21 12:25:08;;;;;;;15.32;12.80;;;;;;;;;;6270479;28;20365;-74
2023/06/21 12:28:09;;;;;;;14.80;12.35;;;;;;;;;;6264389;28;20021;-74
2023/06/21 12:31:15;;;;;;;14.75;10.30;;;;;;;;;;6271169;28;20042;-75
2023/06/21 12:34:16;;;;;;;10.93;9.73;;;;;;;;;;6266722;28;20491;-82
2023/06/21 12:37:20;;;;;;;15.00;12.07;;;;;;;;;;6270361;28;20105;-82
2023/06/21 12:40:21;;;;;;;15.90;11.68;;;;;;;;;;6270337;28;20048;-82
2023/06/21 12:43:37;;;;;;;17.00;12.20;;;;;;;;;;6270147;28;20102;-83
2023/06/21 12:46:38;;;;;;;16.20;11.07;;;;;;;;;;6251327;28;20343;-84
2023/06/21 12:49:39;;;;;;;14.02;11.73;;;;;;;;;;6270319;28;20491;-82
2023/06/21 12:52:39;;;;;;;14.80;10.87;;;;;;;;;;6269978;28;20075;-81
2023/06/21 12:55:47;;;;;;;15.73;12.40;;;;;;;;;;6269536;28;20104;-84
2023/06/21 12:58:47;;;;;;;14.02;11.48;;;;;;;;;;6273929;28;20090;-84
2023/06/21 13:01:47;;;;;;;14.50;10.30;;;;;;;;;;6270561;28;20029;-83
2023/06/21 13:04:48;;;;;;;13.10;10.90;;;;;;;;;;6270021;28;20377;-84
2023/06/21 13:07:48;;;;;;;13.73;10.90;;;;;;;;;;6269554;28;20102;-85
2023/06/21 13:10:55;;;;;;;14.57;11.47;;;;;;;;;;6270253;28;20283;-86
2023/06/21 13:13:56;;;;;;;14.88;10.80;;;;;;;;;;6270088;28;20438;-77
2023/06/21 13:16:56;;;;;;;15.07;11.50;;;;;;;;;;6270170;28;20032;-75
2023/06/21 13:19:56;;;;;;;14.75;10.93;;;;;;;;;;6266008;28;20311;-76
2023/06/21 13:22:56;;;;;;;11.03;9.40;;;;;;;;;;6268629;28;20035;-76
2023/06/21 13:25:57;;;;;;;12.87;10.77;;;;;;;;;;6269998;28;20029;-75
2023/06/21 13:28:57;;;;;;;14.05;9.50;;;;;;;;;;6267641;28;20107;-75
2023/06/21 13:31:58;;;;;;;10.57;9.47;;;;;;;;;;6266851;28;20178;-75
2023/06/21 13:34:59;;;;;;;14.20;9.40;;;;;;;;;;6265908;28;20453;-75
2023/06/21 13:37:59;;;;;;;12.57;10.00;;;;;;;;;;6269126;28;20083;-76
2023/06/21 13:40:59;;;;;;;13.68;9.50;;;;;;;;;;6269145;28;20154;-76
2023/06/21 13:44:00;;;;;;;12.45;9.15;;;;;;;;;;6269763;28;20029;-81
2023/06/21 13:47:00;;;;;;;10.82;9.10;;;;;;;;;;6262161;28;20039;-84
2023/06/21 13:50:04;;;;;;;11.60;9.93;;;;;;;;;;6266788;28;20096;-82
2023/06/21 13:53:04;;;;;;;11.48;10.27;;;;;;;;;;6266289;28;20700;-82
2023/06/21 13:56:04;;;;;;;11.57;7.87;;;;;;;;;;6269021;28;20025;-83
2023/06/21 13:59:07;;;;;;;12.05;9.45;;;;;;;;;;6262436;28;20025;-84
2023/06/21 14:02:08;;;;;;;11.15;8.50;;;;;;;;;;6254696;28;20029;-82
2023/06/21 14:05:09;;;;;;;15.10;9.63;;;;;;;;;;6270595;28;20021;-84
2023/06/21 14:08:09;;;;;;;9.95;8.82;;;;;;;;;;6266465;28;20025;-82
2023/06/21 14:11:10;;;;;;;10.80;9.67;;;;;;;;;;6268114;28;20012;-82
2023/06/21 14:14:10;;;;;;;11.65;9.70;;;;;;;;;;6265433;28;20037;-84
2023/06/21 14:17:11;;;;;;;13.57;8.50;;;;;;;;;;6265768;28;20109;-83
2023/06/21 14:20:12;;;;;;;14.02;9.10;;;;;;;;;;6264842;28;20398;-82
2023/06/21 14:23:12;;;;;;;11.45;8.93;;;;;;;;;;6267852;28;20483;-82
2023/06/21 14:26:13;;;;;;;11.82;8.38;;;;;;;;;;6264500;28;20044;-83
2023/06/21 14:29:13;;;;;;;12.80;9.07;;;;;;;;;;6268230;28;20055;-81
2023/06/21 14:32:13;;;;;;;12.10;8.30;;;;;;;;;;6266840;28;20075;-83
2023/06/21 14:35:14;;;;;;;11.37;9.40;;;;;;;;;;6249823;28;20029;-84
2023/06/21 14:38:14;;;;;;;12.17;9.03;;;;;;;;;;6265123;28;20129;-84
2023/06/21 14:41:14;;;;;;;12.50;9.27;;;;;;;;;;6267541;28;20103;-84
2023/06/21 14:44:14;;;;;;;12.00;9.37;;;;;;;;;;6262059;28;20108;-82
2023/06/21 14:47:14;;;;;;;10.97;8.90;;;;;;;;;;6268151;28;20052;-81
2023/06/21 14:50:15;;;;;;;11.83;8.63;;;;;;;;;;6267919;28;20021;-81
2023/06/21 14:53:15;;;;;;;13.40;9.97;;;;;;;;;;6268509;28;20013;-75
2023/06/21 14:56:15;;;;;;;11.90;10.15;;;;;;;;;;6266316;28;20031;-74
2023/06/21 14:59:15;;;;;;;14.17;9.40;;;;;;;;;;6267371;28;20099;-75
2023/06/21 15:02:16;;;;;;;13.57;9.83;;;;;;;;;;6267997;28;20025;-74
2023/06/21 15:05:16;;;;;;;12.32;9.13;;;;;;;;;;6266049;28;20083;-75
2023/06/21 15:08:17;;;;;;;15.23;9.87;;;;;;;;;;6265610;28;20028;-75
2023/06/21 15:11:17;;;;;;;17.52;9.75;;;;;;;;;;6265191;28;20122;-75
2023/06/21 15:14:17;;;;;;;9.90;8.90;;;;;;;;;;6272215;28;20174;-76
2023/06/21 15:17:18;;;;;;;13.68;10.10;;;;;;;;;;6274479;28;20438;-75
2023/06/21 15:20:19;;;;;;;15.70;10.07;;;;;;;;;;6270329;28;20020;-75
2023/06/21 15:23:19;;;;;;;11.70;8.95;;;;;;;;;;6269617;28;20060;-75
2023/06/21 15:26:20;;;;;;;11.85;8.93;;;;;;;;;;6267160;28;20574;-75
2023/06/21 15:29:20;;;;;;;12.97;9.87;;;;;;;;;;6263985;28;20021;-75
2023/06/21 15:32:21;;;;;;;12.70;10.65;;;;;;;;;;6266930;28;20075;-84
2023/06/21 15:35:21;;;;;;;10.38;9.20;;;;;;;;;;6274299;28;20027;-85
2023/06/21 15:38:22;;;;;;;13.60;9.47;;;;;;;;;;6272168;28;20025;-85
2023/06/21 15:41:22;;;;;;;13.20;9.10;;;;;;;;;;6271260;28;20032;-84
2023/06/21 15:44:23;;;;;;;12.20;9.17;;;;;;;;;;6287960;28;20040;-81
2023/06/21 15:47:26;;;;;;;12.63;9.70;;;;;;;;;;6291207;28;20028;-83
2023/06/21 15:50:26;;;;;;;10.30;7.72;;;;;;;;;;6290330;28;20028;-79
2023/06/21 15:53:26;;;;;;;10.97;9.70;;;;;;;;;;6282380;28;20368;-84
2023/06/21 15:56:28;;;;;;;12.70;9.03;;;;;;;;;;6272360;28;20017;-83
2023/06/21 15:59:28;;;;;;;11.70;8.15;;;;;;;;;;6271929;28;20031;-87
2023/06/21 16:02:28;;;;;;;12.57;8.20;;;;;;;;;;6273716;28;20025;-83
2023/06/21 16:05:28;;;;;;;10.47;8.43;;;;;;;;;;6267404;28;20066;-83
2023/06/21 16:08:29;;;;;;;10.87;8.30;;;;;;;;;;6268553;28;20025;-86
2023/06/21 16:11:29;;;;;;;9.70;8.02;;;;;;;;;;6265672;28;20017;-75
2023/06/21 16:14:29;;;;;;;9.87;8.07;;;;;;;;;;6267978;28;20732;-76
2023/06/21 16:17:29;;;;;;;11.33;8.37;;;;;;;;;;6266889;28;20482;-75
2023/06/21 16:20:30;;;;;;;13.40;8.53;;;;;;;;;;6266747;28;20021;-76
2023/06/21 16:23:30;;;;;;;12.10;9.25;;;;;;;;;;6270370;28;20013;-76
2023/06/21 16:26:31;;;;;;;12.33;8.57;;;;;;;;;;6270103;28;20091;-76
2023/06/21 16:29:32;;;;;;;11.02;7.68;;;;;;;;;;6269796;28;20017;-76
2023/06/21 16:32:32;;;;;;;13.30;9.53;;;;;;;;;;6263620;28;20075;-75
2023/06/21 16:35:32;;;;;;;12.02;7.75;;;;;;;;;;6269817;28;20084;-76
2023/06/21 16:38:33;;;;;;;11.17;8.40;;;;;;;;;;6251847;28;20022;-75
2023/06/21 16:41:34;;;;;;;14.13;8.60;;;;;;;;;;6270402;28;20043;-86
2023/06/21 16:44:35;;;;;;;12.13;8.55;;;;;;;;;;6275071;28;20009;-87
2023/06/21 16:47:35;;;;;;;10.80;8.03;;;;;;;;;;6267744;28;20383;-87
2023/06/21 16:50:35;;;;;;;11.07;8.53;;;;;;;;;;6269725;28;20364;-87
2023/06/21 16:53:35;;;;;;;11.03;8.77;;;;;;;;;;6268059;28;20028;-88
2023/06/21 16:56:35;;;;;;;15.50;9.35;;;;;;;;;;6270588;28;20112;-86
2023/06/21 16:59:36;;;;;;;13.27;9.98;;;;;;;;;;6252553;28;20071;-85
2023/06/21 17:02:36;;;;;;;14.23;9.97;;;;;;;;;;6270909;28;20039;-85
2023/06/21 17:05:36;;;;;;;16.25;9.40;;;;;;;;;;6273918;28;20374;-85
2023/06/21 17:08:36;;;;;;;;;;;;;;;;;;6271776;28;20009;-85
2023/06/21 17:11:37;;;;;;;11.70;9.45;;;;;;;;;;6268514;28;19916;-85
2023/06/21 17:14:37;;;;;;;12.47;9.77;;;;;;;;;;6250534;28;20043;-83
2023/06/21 17:17:37;;;;;;;;;;;;;;;;;;6269836;28;20501;-86
2023/06/21 17:20:38;;;;;;;13.85;9.80;;;;;;;;;;6263176;28;20336;-86
2023/06/21 17:23:40;;;;;;;;;;;;;;;;;;6267794;28;20017;-86
2023/06/21 17:26:40;;;;;;;13.02;10.85;;;;;;;;;;6264684;28;19904;-86
2023/06/21 17:29:41;;;;;;;;;;;;;;;;;;6269200;28;20573;-85
2023/06/21 17:32:42;;;;;;;13.95;10.93;;;;;;;;;;6260325;28;19913;-84
2023/06/21 17:35:42;;;;;;;;;;;;;;;;;;6263726;28;20020;-85
2023/06/21 17:38:44;;;;;;;14.77;12.03;;;;;;;;;;6266187;28;19917;-88
2023/06/21 17:41:44;;;;;;;14.25;11.07;;;;;;;;;;6268638;28;20021;-87
2023/06/21 17:44:44;;;;;;;13.45;12.02;;;;;;;;;;6265986;28;20556;-87